Time;durP1;ratioP1;P1;durP2;ratioP2;P2;SDS_P1;SDS_P2;PMS_P1;PMS_P2;Temp;Humidity;BMP_temperature;BMP_pressure;BME280_temperature;BME280_humidity;BME280_pressure;Samples;Min_cycle;Max_cycle;Signal;HPM_P1;HPM_P2
2023/03/21 00:02:16;;;;;;;79.63;38.22;;;;;;;;;;6248700;28;20098;-61
2023/03/21 00:05:19;;;;;;;65.10;30.85;;;;;;;;;;6246570;28;20045;-61
2023/03/21 00:08:22;;;;;;;49.60;24.60;;;;;;;;;;6248304;28;20053;-61
2023/03/21 00:11:22;;;;;;;49.47;24.55;;;;;;;;;;6248592;28;20049;-61
2023/03/21 00:14:24;;;;;;;53.72;25.10;;;;;;;;;;6247304;28;20064;-61
2023/03/21 00:17:31;;;;;;;49.22;24.35;;;;;;;;;;6232283;28;20668;-61
2023/03/21 00:20:36;;;;;;;52.47;26.88;;;;;;;;;;6248049;28;20126;-61
2023/03/21 00:23:37;;;;;;;58.50;29.05;;;;;;;;;;6248192;28;20045;-62
2023/03/21 00:26:37;;;;;;;64.05;30.40;;;;;;;;;;6249288;28;20204;-62
2023/03/21 00:29:38;;;;;;;58.22;29.45;;;;;;;;;;6248173;28;20045;-61
2023/03/21 00:32:40;;;;;;;57.78;28.38;;;;;;;;;;6249492;28;20056;-62
2023/03/21 00:35:46;;;;;;;51.35;26.42;;;;;;;;;;6248166;28;20179;-61
2023/03/21 00:38:47;;;;;;;54.00;26.05;;;;;;;;;;6246872;28;20053;-61
2023/03/21 00:41:48;;;;;;;53.30;26.77;;;;;;;;;;6247348;28;20399;-62
2023/03/21 00:44:49;;;;;;;50.97;25.08;;;;;;;;;;6246545;28;20492;-61
2023/03/21 00:47:50;;;;;;;47.80;23.83;;;;;;;;;;6253351;28;20056;-62
2023/03/21 00:50:53;;;;;;;50.88;24.67;;;;;;;;;;6257146;28;20037;-61
2023/03/21 00:53:56;;;;;;;51.70;25.55;;;;;;;;;;6265306;28;20584;-62
2023/03/21 00:56:56;;;;;;;45.90;23.63;;;;;;;;;;6268504;28;20041;-63
2023/03/21 00:59:57;;;;;;;49.97;23.98;;;;;;;;;;6264604;28;20049;-61
2023/03/21 01:03:04;;;;;;;47.78;24.33;;;;;;;;;;6270897;28;20099;-62
2023/03/21 01:06:05;;;;;;;50.58;24.65;;;;;;;;;;6266070;28;20053;-62
2023/03/21 01:09:11;;;;;;;55.05;27.50;;;;;;;;;;6263431;28;20060;-62
2023/03/21 01:12:12;;;;;;;55.08;26.50;;;;;;;;;;6266627;28;20049;-61
2023/03/21 01:15:13;;;;;;;60.17;27.77;;;;;;;;;;6268441;28;20045;-62
2023/03/21 01:18:15;;;;;;;57.72;27.08;;;;;;;;;;6270225;28;20449;-61
2023/03/21 01:21:16;;;;;;;58.50;26.42;;;;;;;;;;6269972;28;20049;-62
2023/03/21 01:24:17;;;;;;;52.67;25.95;;;;;;;;;;6271241;28;20049;-62
2023/03/21 01:27:18;;;;;;;53.95;25.05;;;;;;;;;;6271019;28;20056;-62
2023/03/21 01:30:18;;;;;;;52.20;25.27;;;;;;;;;;6260974;28;20554;-63
2023/03/21 01:33:20;;;;;;;48.28;22.48;;;;;;;;;;6261670;28;20055;-61
2023/03/21 01:36:23;;;;;;;49.00;23.27;;;;;;;;;;6265105;28;20052;-62
2023/03/21 01:39:24;;;;;;;52.47;21.52;;;;;;;;;;6261911;28;20064;-62
2023/03/21 01:42:25;;;;;;;49.20;21.38;;;;;;;;;;6259247;28;20492;-62
2023/03/21 01:46:03;;;;;;;46.40;21.10;;;;;;;;;;6262499;28;20497;-61
2023/03/21 01:49:37;;;;;;;46.90;21.67;;;;;;;;;;6263931;28;20395;-62
2023/03/21 01:52:40;;;;;;;44.33;21.77;;;;;;;;;;6261196;28;20084;-63
2023/03/21 01:55:41;;;;;;;45.28;20.88;;;;;;;;;;6262917;28;20048;-61
2023/03/21 01:58:44;;;;;;;49.58;21.63;;;;;;;;;;6258522;28;20095;-62
2023/03/21 02:01:44;;;;;;;46.35;21.17;;;;;;;;;;6262798;28;20064;-63
2023/03/21 02:04:49;;;;;;;44.33;20.73;;;;;;;;;;6252695;28;20056;-62
2023/03/21 02:07:51;;;;;;;44.75;20.17;;;;;;;;;;6262067;28;20464;-62
2023/03/21 02:10:52;;;;;;;;;;;;;;;;;;6261038;28;20593;-62
2023/03/21 02:13:53;;;;;;;40.67;19.90;;;;;;;;;;6259197;28;19924;-63
2023/03/21 02:17:00;;;;;;;38.73;19.97;;;;;;;;;;6260400;28;20052;-62
2023/03/21 02:20:29;;;;;;;39.13;18.88;;;;;;;;;;6261395;28;20302;-61
2023/03/21 02:23:59;;;;;;;42.08;20.08;;;;;;;;;;6261609;28;20052;-62
2023/03/21 02:27:14;;;;;;;44.30;20.17;;;;;;;;;;6261057;28;20045;-62
2023/03/21 02:30:26;;;;;;;40.75;19.63;;;;;;;;;;6261123;28;20148;-61
2023/03/21 02:33:26;;;;;;;42.47;19.45;;;;;;;;;;6261055;28;20947;-62
2023/03/21 02:36:54;;;;;;;39.72;19.00;;;;;;;;;;6262716;28;20045;-63
2023/03/21 02:40:26;;;;;;;44.78;20.55;;;;;;;;;;6259502;28;20563;-62
2023/03/21 02:43:43;;;;;;;40.70;19.17;;;;;;;;;;6249639;28;20049;-62
2023/03/21 02:46:52;;;;;;;41.00;18.88;;;;;;;;;;6258985;28;20043;-61
2023/03/21 02:50:46;;;;;;;42.28;19.38;;;;;;;;;;6262066;28;20045;-62
2023/03/21 02:53:52;;;;;;;40.67;18.38;;;;;;;;;;6240313;28;20055;-62
2023/03/21 02:56:56;;;;;;;38.25;18.58;;;;;;;;;;6259590;28;20576;-62
2023/03/21 02:59:57;;;;;;;41.95;18.50;;;;;;;;;;6261064;28;20051;-62
2023/03/21 03:02:58;;;;;;;39.13;18.70;;;;;;;;;;6260788;28;20044;-60
2023/03/21 03:06:01;;;;;;;37.55;18.48;;;;;;;;;;6258634;28;20044;-63
2023/03/21 03:09:37;;;;;;;43.53;19.45;;;;;;;;;;6263102;28;20045;-62
2023/03/21 03:13:01;;;;;;;39.67;18.38;;;;;;;;;;6260856;28;20044;-61
2023/03/21 03:16:14;;;;;;;36.55;17.60;;;;;;;;;;6261768;28;20037;-62
2023/03/21 03:19:26;;;;;;;43.03;17.65;;;;;;;;;;6261479;28;20423;-63
2023/03/21 03:22:42;;;;;;;36.83;17.27;;;;;;;;;;6261530;28;20056;-62
2023/03/21 03:25:56;;;;;;;41.90;18.60;;;;;;;;;;6259543;28;20041;-61
2023/03/21 03:29:03;;;;;;;37.15;18.70;;;;;;;;;;6259519;28;20045;-62
2023/03/21 03:32:12;;;;;;;38.63;17.70;;;;;;;;;;6258072;28;20044;-62
2023/03/21 03:35:16;;;;;;;43.20;19.65;;;;;;;;;;6262429;28;20049;-62
2023/03/21 03:38:20;;;;;;;40.58;19.48;;;;;;;;;;6260470;28;20138;-62
2023/03/21 03:41:25;;;;;;;43.25;19.27;;;;;;;;;;6259758;28;20041;-61
2023/03/21 03:44:27;;;;;;;42.58;19.45;;;;;;;;;;6257056;28;20048;-61
2023/03/21 03:48:00;;;;;;;43.30;19.38;;;;;;;;;;6260824;28;20115;-62
2023/03/21 03:51:05;;;;;;;41.92;19.70;;;;;;;;;;6255423;28;20057;-64
2023/03/21 03:54:16;;;;;;;42.17;20.90;;;;;;;;;;6255355;28;20565;-61
2023/03/21 03:57:18;;;;;;;46.03;20.60;;;;;;;;;;6260214;28;20041;-62
2023/03/21 04:00:19;;;;;;;60.50;26.38;;;;;;;;;;6259448;28;20044;-61
2023/03/21 04:03:20;;;;;;;57.72;23.88;;;;;;;;;;6265358;28;20056;-61
2023/03/21 04:06:21;;;;;;;53.97;24.73;;;;;;;;;;6258110;28;20044;-61
2023/03/21 04:09:22;;;;;;;51.63;22.58;;;;;;;;;;6259083;28;20523;-61
2023/03/21 04:12:23;;;;;;;48.53;21.67;;;;;;;;;;6261147;28;20728;-61
2023/03/21 04:15:24;;;;;;;44.57;21.47;;;;;;;;;;6258413;28;20051;-62
2023/03/21 04:18:25;;;;;;;43.72;19.63;;;;;;;;;;6262341;28;20049;-62
2023/03/21 04:21:26;;;;;;;49.58;22.75;;;;;;;;;;6263725;28;20492;-62
2023/03/21 04:24:26;;;;;;;56.95;26.25;;;;;;;;;;6267040;28;20052;-62
2023/03/21 04:27:27;;;;;;;48.22;21.85;;;;;;;;;;6264473;28;20069;-62
2023/03/21 04:30:28;;;;;;;47.45;22.90;;;;;;;;;;6266747;28;20091;-61
2023/03/21 04:33:28;;;;;;;45.03;19.48;;;;;;;;;;6265506;28;20056;-61
2023/03/21 04:36:37;;;;;;;42.47;20.45;;;;;;;;;;6265434;28;20060;-63
2023/03/21 04:39:38;;;;;;;47.60;21.13;;;;;;;;;;6264220;28;20060;-62
2023/03/21 04:42:38;;;;;;;45.60;19.55;;;;;;;;;;6265200;28;20049;-62
2023/03/21 04:45:39;;;;;;;42.30;20.00;;;;;;;;;;6260017;28;20136;-62
2023/03/21 04:48:40;;;;;;;46.03;20.80;;;;;;;;;;6262892;28;20425;-62
2023/03/21 04:51:42;;;;;;;47.15;22.70;;;;;;;;;;6262067;28;20144;-62
2023/03/21 04:54:43;;;;;;;44.22;20.13;;;;;;;;;;6261634;28;20098;-61
2023/03/21 04:57:44;;;;;;;51.53;25.08;;;;;;;;;;6263161;28;20124;-62
2023/03/21 05:00:46;;;;;;;46.45;20.90;;;;;;;;;;6260324;28;20033;-62
2023/03/21 05:03:47;;;;;;;46.53;21.73;;;;;;;;;;6263099;28;20045;-61
2023/03/21 05:06:47;;;;;;;48.25;21.15;;;;;;;;;;6253912;28;20049;-61
2023/03/21 05:09:48;;;;;;;46.92;20.58;;;;;;;;;;6264936;28;20114;-62
2023/03/21 05:12:48;;;;;;;53.03;23.23;;;;;;;;;;6264316;28;20436;-61
2023/03/21 05:15:49;;;;;;;47.72;21.60;;;;;;;;;;6263856;28;20106;-62
2023/03/21 05:18:49;;;;;;;54.50;22.88;;;;;;;;;;6263257;28;20472;-62
2023/03/21 05:21:50;;;;;;;55.92;23.48;;;;;;;;;;6261252;28;20045;-61
2023/03/21 05:24:54;;;;;;;62.42;30.13;;;;;;;;;;6263015;28;20417;-62
2023/03/21 05:27:54;;;;;;;55.72;25.95;;;;;;;;;;6266609;28;20132;-62
2023/03/21 05:30:55;;;;;;;69.57;28.63;;;;;;;;;;6267086;28;20040;-62
2023/03/21 05:33:56;;;;;;;68.00;29.08;;;;;;;;;;6264306;28;20140;-62
2023/03/21 05:36:56;;;;;;;54.95;22.27;;;;;;;;;;6261749;28;20045;-63
2023/03/21 05:39:57;;;;;;;50.22;21.98;;;;;;;;;;6268686;28;20416;-62
2023/03/21 05:42:57;;;;;;;47.47;21.10;;;;;;;;;;6264098;28;20499;-62
2023/03/21 05:45:58;;;;;;;52.50;21.92;;;;;;;;;;6267146;28;20463;-62
2023/03/21 05:48:59;;;;;;;48.65;22.83;;;;;;;;;;6262681;28;20146;-62
2023/03/21 05:51:59;;;;;;;50.85;21.40;;;;;;;;;;6264488;28;20061;-62
2023/03/21 05:55:00;;;;;;;51.10;20.85;;;;;;;;;;6266183;28;20556;-63
2023/03/21 05:58:01;;;;;;;49.78;21.20;;;;;;;;;;6262402;28;20381;-63
2023/03/21 06:01:01;;;;;;;47.83;20.95;;;;;;;;;;6265058;28;20048;-62
2023/03/21 06:04:02;;;;;;;45.10;19.10;;;;;;;;;;6263984;28;20531;-63
2023/03/21 06:07:02;;;;;;;45.08;19.85;;;;;;;;;;6264143;28;20061;-63
2023/03/21 06:10:03;;;;;;;44.70;20.08;;;;;;;;;;6270331;28;20053;-62
2023/03/21 06:13:04;;;;;;;42.35;19.55;;;;;;;;;;6264131;28;20126;-62
2023/03/21 06:16:05;;;;;;;42.70;20.15;;;;;;;;;;6263650;28;20053;-61
2023/03/21 06:19:06;;;;;;;45.45;19.00;;;;;;;;;;6263120;28;20412;-63
2023/03/21 06:22:06;;;;;;;43.75;19.40;;;;;;;;;;6263632;28;20064;-62
2023/03/21 06:25:08;;;;;;;36.35;16.58;;;;;;;;;;6268556;28;20045;-62
2023/03/21 06:28:08;;;;;;;38.57;16.23;;;;;;;;;;6269347;28;20127;-61
2023/03/21 06:31:09;;;;;;;37.17;17.48;;;;;;;;;;6269640;28;20282;-61
2023/03/21 06:34:10;;;;;;;39.55;16.73;;;;;;;;;;6269465;28;20533;-61
2023/03/21 06:37:11;;;;;;;36.25;16.80;;;;;;;;;;6268130;28;20048;-62
2023/03/21 06:40:12;;;;;;;37.92;17.10;;;;;;;;;;6269714;28;20437;-61
2023/03/21 06:43:13;;;;;;;36.17;17.45;;;;;;;;;;6268805;28;20124;-62
2023/03/21 06:46:14;;;;;;;35.40;16.33;;;;;;;;;;6266203;28;20053;-62
2023/03/21 06:49:14;;;;;;;33.70;16.48;;;;;;;;;;6264442;28;20455;-62
2023/03/21 06:52:15;;;;;;;36.95;16.88;;;;;;;;;;6261592;28;20103;-62
2023/03/21 06:55:18;;;;;;;33.45;16.25;;;;;;;;;;6260832;28;20053;-61
2023/03/21 06:58:20;;;;;;;32.78;16.48;;;;;;;;;;6261497;28;20044;-61
2023/03/21 07:01:21;;;;;;;;;;;;;;;;;;6260263;28;20049;-62
2023/03/21 07:04:21;;;;;;;34.83;15.65;;;;;;;;;;6260563;28;19924;-62
2023/03/21 07:07:26;;;;;;;35.15;16.52;;;;;;;;;;6260968;28;20048;-62
2023/03/21 07:10:26;;;;;;;33.67;16.48;;;;;;;;;;6260197;28;20479;-62
2023/03/21 07:13:27;;;;;;;38.75;18.90;;;;;;;;;;6259961;28;20041;-62
2023/03/21 07:16:27;;;;;;;45.05;21.05;;;;;;;;;;6256508;28;20041;-62
2023/03/21 07:19:28;;;;;;;41.13;19.60;;;;;;;;;;6259619;28;20416;-62
2023/03/21 07:22:29;;;;;;;36.10;17.80;;;;;;;;;;6260257;28;20087;-63
2023/03/21 07:25:29;;;;;;;40.67;19.58;;;;;;;;;;6259573;28;20053;-62
2023/03/21 07:28:30;;;;;;;40.65;18.70;;;;;;;;;;6260764;28;20061;-62
2023/03/21 07:31:31;;;;;;;33.53;17.00;;;;;;;;;;6260762;28;20079;-63
2023/03/21 07:34:32;;;;;;;34.03;17.00;;;;;;;;;;6259520;28;20057;-62
2023/03/21 07:37:33;;;;;;;36.42;17.48;;;;;;;;;;6260120;28;20066;-62
2023/03/21 07:40:34;;;;;;;40.03;18.70;;;;;;;;;;6260732;28;20056;-62
2023/03/21 07:43:34;;;;;;;42.60;19.35;;;;;;;;;;6260520;28;20139;-62
2023/03/21 07:46:35;;;;;;;37.70;18.33;;;;;;;;;;6258563;28;20483;-62
2023/03/21 07:49:36;;;;;;;39.10;18.17;;;;;;;;;;6259746;28;20064;-62
2023/03/21 07:52:37;;;;;;;39.67;18.50;;;;;;;;;;6260958;28;20052;-62
2023/03/21 07:55:37;;;;;;;37.10;18.67;;;;;;;;;;6259812;28;20048;-62
2023/03/21 07:58:38;;;;;;;40.38;19.52;;;;;;;;;;6259522;28;20419;-62
2023/03/21 08:01:39;;;;;;;42.72;19.45;;;;;;;;;;6257085;28;20511;-62
2023/03/21 08:04:40;;;;;;;38.47;18.58;;;;;;;;;;6258166;28;20407;-62
2023/03/21 08:07:40;;;;;;;42.65;20.08;;;;;;;;;;6260690;28;20102;-62
2023/03/21 08:10:43;;;;;;;49.83;21.35;;;;;;;;;;6266558;28;20531;-62
2023/03/21 08:13:43;;;;;;;45.55;21.52;;;;;;;;;;6259224;28;20507;-62
2023/03/21 08:16:44;;;;;;;48.58;22.00;;;;;;;;;;6263928;28;20048;-62
2023/03/21 08:19:44;;;;;;;47.97;22.25;;;;;;;;;;6258129;28;20052;-62
2023/03/21 08:22:46;;;;;;;45.42;20.90;;;;;;;;;;6265540;28;20052;-62
2023/03/21 08:25:50;;;;;;;50.78;21.88;;;;;;;;;;6252897;28;20552;-62
2023/03/21 08:28:51;;;;;;;44.15;21.50;;;;;;;;;;6262961;28;20049;-62
2023/03/21 08:31:52;;;;;;;44.97;21.25;;;;;;;;;;6261027;28;20056;-62
2023/03/21 08:34:52;;;;;;;43.50;20.63;;;;;;;;;;6257299;28;20060;-62
2023/03/21 08:37:53;;;;;;;45.42;22.02;;;;;;;;;;6260600;28;20045;-62
2023/03/21 08:40:54;;;;;;;46.58;21.70;;;;;;;;;;6260646;28;20102;-62
2023/03/21 08:43:54;;;;;;;44.33;21.35;;;;;;;;;;6258613;28;20071;-62
2023/03/21 08:46:55;;;;;;;46.42;21.90;;;;;;;;;;6258353;28;20045;-62
2023/03/21 08:49:56;;;;;;;47.08;21.40;;;;;;;;;;6259269;28;20064;-62
2023/03/21 08:52:57;;;;;;;45.30;21.77;;;;;;;;;;6258749;28;20051;-62
2023/03/21 08:55:58;;;;;;;43.75;21.70;;;;;;;;;;6258385;28;20496;-62
2023/03/21 08:59:01;;;;;;;46.40;23.15;;;;;;;;;;6259025;28;20040;-62
2023/03/21 09:02:02;;;;;;;50.75;22.25;;;;;;;;;;6260907;28;20064;-62
2023/03/21 09:05:04;;;;;;;47.28;23.10;;;;;;;;;;6258523;28;20049;-62
2023/03/21 09:08:05;;;;;;;46.20;22.17;;;;;;;;;;6261971;28;20056;-62
2023/03/21 09:11:06;;;;;;;42.75;20.70;;;;;;;;;;6265750;28;20595;-62
2023/03/21 09:14:07;;;;;;;42.95;20.05;;;;;;;;;;6263634;28;20518;-62
2023/03/21 09:17:08;;;;;;;39.15;19.35;;;;;;;;;;6261245;28;20509;-62
2023/03/21 09:20:17;;;;;;;46.75;22.15;;;;;;;;;;6262130;28;20130;-62
2023/03/21 09:23:18;;;;;;;47.22;21.13;;;;;;;;;;6264216;28;20052;-62
2023/03/21 09:26:19;;;;;;;42.15;20.27;;;;;;;;;;6262301;28;20037;-62
2023/03/21 09:29:20;;;;;;;41.00;19.20;;;;;;;;;;6263223;28;20044;-62
2023/03/21 09:32:20;;;;;;;44.92;20.13;;;;;;;;;;6263151;28;20044;-61
2023/03/21 09:35:23;;;;;;;45.55;20.98;;;;;;;;;;6263594;28;20049;-62
2023/03/21 09:38:29;;;;;;;45.42;21.25;;;;;;;;;;6264655;28;20040;-62
2023/03/21 09:42:10;;;;;;;44.58;19.92;;;;;;;;;;6263075;28;20114;-62
2023/03/21 09:45:27;;;;;;;43.45;20.38;;;;;;;;;;6261939;28;20044;-62
2023/03/21 09:48:44;;;;;;;51.58;20.35;;;;;;;;;;6264808;28;20070;-62
2023/03/21 09:51:49;;;;;;;48.28;22.33;;;;;;;;;;6262257;28;20918;-62
2023/03/21 09:54:51;;;;;;;44.50;21.23;;;;;;;;;;6264398;28;20068;-62
2023/03/21 09:58:03;;;;;;;46.25;22.15;;;;;;;;;;6263941;28;20045;-62
2023/03/21 10:01:26;;;;;;;51.63;22.35;;;;;;;;;;6264805;28;20118;-62
2023/03/21 10:04:26;;;;;;;;;;;;;;;;;;6264358;28;20044;-62
2023/03/21 10:07:32;;;;;;;44.15;20.15;;;;;;;;;;6261017;28;20379;-62
2023/03/21 10:10:38;;;;;;;47.03;20.98;;;;;;;;;;6260048;28;20075;-62
2023/03/21 10:13:43;;;;;;;48.33;22.33;;;;;;;;;;6260252;28;20056;-62
2023/03/21 10:16:51;;;;;;;49.50;21.52;;;;;;;;;;6261322;28;20183;-62
2023/03/21 10:20:14;;;;;;;49.05;22.27;;;;;;;;;;6260260;28;20098;-62
2023/03/21 10:23:17;;;;;;;50.45;23.13;;;;;;;;;;6254712;28;20510;-62
2023/03/21 10:26:22;;;;;;;51.72;22.45;;;;;;;;;;6260784;28;20481;-62
2023/03/21 10:29:27;;;;;;;47.63;22.75;;;;;;;;;;6262329;28;20139;-62
2023/03/21 10:32:28;;;;;;;52.50;23.63;;;;;;;;;;6264076;28;20045;-62
2023/03/21 10:35:31;;;;;;;52.45;23.80;;;;;;;;;;6261613;28;20075;-63
2023/03/21 10:38:33;;;;;;;53.45;23.55;;;;;;;;;;6262075;28;20071;-62
2023/03/21 10:41:33;;;;;;;48.07;22.10;;;;;;;;;;6261269;28;20049;-62
2023/03/21 10:44:35;;;;;;;45.78;21.77;;;;;;;;;;6259221;28;20045;-62
2023/03/21 10:47:35;;;;;;;44.17;21.65;;;;;;;;;;6263107;28;20051;-62
2023/03/21 10:50:36;;;;;;;50.38;21.45;;;;;;;;;;6266545;28;20053;-62
2023/03/21 10:53:46;;;;;;;46.13;21.38;;;;;;;;;;6267527;28;20101;-62
2023/03/21 10:57:10;;;;;;;39.58;18.10;;;;;;;;;;6266627;28;20504;-62
2023/03/21 11:00:20;;;;;;;38.25;18.05;;;;;;;;;;6265837;28;20072;-61
2023/03/21 11:03:27;;;;;;;37.25;17.02;;;;;;;;;;6268617;28;20041;-62
2023/03/21 11:06:31;;;;;;;39.60;18.65;;;;;;;;;;6266931;28;20091;-62
2023/03/21 11:10:10;;;;;;;39.22;18.88;;;;;;;;;;6248163;28;20072;-62
2023/03/21 11:13:22;;;;;;;37.47;17.23;;;;;;;;;;6238964;28;20052;-61
2023/03/21 11:16:23;;;;;;;41.72;18.92;;;;;;;;;;6251184;28;20048;-61
2023/03/21 11:19:34;;;;;;;37.65;17.65;;;;;;;;;;6248437;28;20052;-61
2023/03/21 11:22:42;;;;;;;35.88;17.48;;;;;;;;;;6249347;28;20057;-61
2023/03/21 11:25:42;;;;;;;40.47;17.92;;;;;;;;;;6251178;28;20137;-62
2023/03/21 11:28:45;;;;;;;33.78;17.00;;;;;;;;;;6247587;28;20049;-61
2023/03/21 11:31:46;;;;;;;39.33;17.63;;;;;;;;;;6247662;28;20135;-63
2023/03/21 11:34:57;;;;;;;35.10;17.10;;;;;;;;;;6249502;28;20049;-62
2023/03/21 11:37:58;;;;;;;32.70;16.50;;;;;;;;;;6248877;28;20048;-62
2023/03/21 11:41:01;;;;;;;33.47;16.02;;;;;;;;;;6252017;28;20053;-62
2023/03/21 11:44:02;;;;;;;34.78;17.15;;;;;;;;;;6250885;28;20053;-61
2023/03/21 11:47:03;;;;;;;33.17;16.83;;;;;;;;;;6248985;28;20057;-62
2023/03/21 11:50:37;;;;;;;35.50;17.27;;;;;;;;;;6247354;28;20487;-62
2023/03/21 11:53:42;;;;;;;32.63;16.20;;;;;;;;;;6221530;28;20538;-62
2023/03/21 11:56:46;;;;;;;34.63;17.60;;;;;;;;;;6250860;28;20045;-62
2023/03/21 11:59:47;;;;;;;35.35;16.58;;;;;;;;;;6248893;28;20584;-62
2023/03/21 12:03:05;;;;;;;33.22;16.55;;;;;;;;;;6247546;28;20048;-63
2023/03/21 12:06:17;;;;;;;31.90;16.80;;;;;;;;;;6248721;28;20053;-63
2023/03/21 12:09:36;;;;;;;30.30;15.82;;;;;;;;;;6246453;28;20087;-63
2023/03/21 12:12:46;;;;;;;30.35;16.08;;;;;;;;;;6250191;28;20049;-62
2023/03/21 12:16:05;;;;;;;35.88;17.02;;;;;;;;;;6247890;28;20124;-60
2023/03/21 12:19:32;;;;;;;32.30;16.98;;;;;;;;;;6246761;28;20047;-63
2023/03/21 12:22:56;;;;;;;36.20;17.35;;;;;;;;;;6250309;28;20178;-62
2023/03/21 12:26:13;;;;;;;34.13;17.20;;;;;;;;;;6248769;28;20064;-63
2023/03/21 12:29:28;;;;;;;29.95;15.45;;;;;;;;;;6245954;28;20064;-62
2023/03/21 12:32:48;;;;;;;33.80;16.67;;;;;;;;;;6245204;28;20075;-63
2023/03/21 12:36:05;;;;;;;32.15;15.45;;;;;;;;;;6249840;28;20048;-62
2023/03/21 12:39:33;;;;;;;32.60;16.52;;;;;;;;;;6249559;28;20045;-62
2023/03/21 12:42:36;;;;;;;33.80;16.50;;;;;;;;;;6235536;28;20147;-62
2023/03/21 12:45:41;;;;;;;30.85;16.60;;;;;;;;;;6253587;28;20053;-62
2023/03/21 12:48:51;;;;;;;33.95;16.95;;;;;;;;;;6253547;28;20486;-62
2023/03/21 12:51:59;;;;;;;24.67;13.10;;;;;;;;;;6254437;28;20068;-61
2023/03/21 12:55:04;;;;;;;18.02;10.23;;;;;;;;;;6252406;28;20049;-62
2023/03/21 12:58:17;;;;;;;23.02;11.85;;;;;;;;;;6249660;28;20052;-61
2023/03/21 13:01:20;;;;;;;23.23;11.45;;;;;;;;;;6252231;28;20041;-62
2023/03/21 13:04:35;;;;;;;21.85;11.05;;;;;;;;;;6255270;28;20045;-61
2023/03/21 13:07:39;;;;;;;25.52;12.48;;;;;;;;;;6260403;28;20143;-62
2023/03/21 13:10:43;;;;;;;26.42;12.60;;;;;;;;;;6263315;28;20448;-63
2023/03/21 13:13:54;;;;;;;24.63;13.70;;;;;;;;;;6261513;28;20041;-62
2023/03/21 13:17:03;;;;;;;24.63;12.35;;;;;;;;;;6263161;28;20049;-62
2023/03/21 13:20:18;;;;;;;25.92;13.50;;;;;;;;;;6260242;28;20060;-62
2023/03/21 13:23:35;;;;;;;29.33;14.48;;;;;;;;;;6263903;28;20053;-62
2023/03/21 13:26:39;;;;;;;31.80;17.08;;;;;;;;;;6264502;28;20508;-62
2023/03/21 13:29:41;;;;;;;31.60;16.00;;;;;;;;;;6261975;28;20055;-62
2023/03/21 13:32:44;;;;;;;31.90;16.40;;;;;;;;;;6260360;28;20049;-61
2023/03/21 13:35:57;;;;;;;31.80;15.80;;;;;;;;;;6266406;28;20072;-62
2023/03/21 13:39:01;;;;;;;32.72;16.85;;;;;;;;;;6263891;28;20079;-62
2023/03/21 13:42:05;;;;;;;33.78;15.98;;;;;;;;;;6260905;28;20041;-61
2023/03/21 13:45:11;;;;;;;33.25;16.83;;;;;;;;;;6262221;28;20049;-62
2023/03/21 13:48:51;;;;;;;36.80;19.30;;;;;;;;;;6264473;28;20047;-61
2023/03/21 13:51:55;;;;;;;31.33;15.73;;;;;;;;;;6261640;28;20045;-61
2023/03/21 13:54:56;;;;;;;31.38;16.10;;;;;;;;;;6259921;28;20045;-62
2023/03/21 13:57:57;;;;;;;32.33;16.13;;;;;;;;;;6265298;28;20056;-61
2023/03/21 14:01:12;;;;;;;31.02;16.25;;;;;;;;;;6263470;28;20057;-62
2023/03/21 14:04:18;;;;;;;31.70;15.52;;;;;;;;;;6262492;28;20131;-63
2023/03/21 14:07:25;;;;;;;33.00;16.70;;;;;;;;;;6260516;28;20480;-63
2023/03/21 14:10:34;;;;;;;33.35;16.83;;;;;;;;;;6262067;28;20045;-63
2023/03/21 14:13:35;;;;;;;33.22;16.63;;;;;;;;;;6263460;28;20073;-62
2023/03/21 14:16:36;;;;;;;35.60;17.17;;;;;;;;;;6260506;28;20086;-63
2023/03/21 14:19:37;;;;;;;32.90;16.45;;;;;;;;;;6263267;28;20443;-63
2023/03/21 14:22:39;;;;;;;32.10;16.15;;;;;;;;;;6262758;28;20049;-63
2023/03/21 14:25:42;;;;;;;30.40;15.65;;;;;;;;;;6259954;28;20048;-62
2023/03/21 14:28:48;;;;;;;30.65;16.38;;;;;;;;;;6261162;28;20049;-62
2023/03/21 14:31:49;;;;;;;31.70;15.00;;;;;;;;;;6262201;28;20110;-63
2023/03/21 14:34:49;;;;;;;28.85;14.55;;;;;;;;;;6264303;28;20037;-63
2023/03/21 14:37:50;;;;;;;25.13;13.68;;;;;;;;;;6259446;28;20132;-63
2023/03/21 14:40:53;;;;;;;27.38;14.95;;;;;;;;;;6261198;28;20436;-63
2023/03/21 14:44:12;;;;;;;25.85;14.88;;;;;;;;;;6262339;28;20135;-62
2023/03/21 14:47:18;;;;;;;32.70;16.08;;;;;;;;;;6258939;28;20116;-62
2023/03/21 14:50:22;;;;;;;29.90;16.10;;;;;;;;;;6262680;28;20041;-63
2023/03/21 14:53:29;;;;;;;32.08;15.73;;;;;;;;;;6260721;28;20049;-62
2023/03/21 14:56:38;;;;;;;28.83;15.65;;;;;;;;;;6261329;28;20576;-63
2023/03/21 14:59:39;;;;;;;27.58;15.55;;;;;;;;;;6258000;28;20434;-62
2023/03/21 15:02:43;;;;;;;24.55;14.00;;;;;;;;;;6260821;28;20049;-63
2023/03/21 15:05:44;;;;;;;28.20;14.52;;;;;;;;;;6259829;28;20052;-63
2023/03/21 15:08:54;;;;;;;29.77;16.00;;;;;;;;;;6257984;28;20056;-63
2023/03/21 15:11:56;;;;;;;29.17;14.68;;;;;;;;;;6258393;28;20510;-63
2023/03/21 15:15:00;;;;;;;29.17;15.25;;;;;;;;;;6260143;28;20150;-63
2023/03/21 15:18:04;;;;;;;28.98;16.02;;;;;;;;;;6256996;28;20075;-63
2023/03/21 15:21:10;;;;;;;30.13;15.90;;;;;;;;;;6256123;28;20083;-63
2023/03/21 15:24:14;;;;;;;28.67;14.80;;;;;;;;;;6260121;28;20103;-63
2023/03/21 15:27:17;;;;;;;27.13;13.48;;;;;;;;;;6259698;28;20096;-63
2023/03/21 15:30:22;;;;;;;33.47;16.67;;;;;;;;;;6257352;28;20049;-63
2023/03/21 15:33:24;;;;;;;27.83;15.02;;;;;;;;;;6259177;28;20103;-62
2023/03/21 15:36:27;;;;;;;30.67;16.20;;;;;;;;;;6260363;28;20048;-63
2023/03/21 15:39:28;;;;;;;33.53;16.58;;;;;;;;;;6258289;28;20168;-63
2023/03/21 15:42:33;;;;;;;32.90;16.90;;;;;;;;;;6257756;28;22111;-63
2023/03/21 15:45:51;;;;;;;36.15;18.17;;;;;;;;;;6258347;28;20053;-63
2023/03/21 15:49:07;;;;;;;33.42;17.38;;;;;;;;;;6260151;28;20056;-62
2023/03/21 15:52:13;;;;;;;29.48;16.77;;;;;;;;;;6258685;28;20052;-63
2023/03/21 15:55:47;;;;;;;30.77;16.48;;;;;;;;;;6260104;28;20029;-63
2023/03/21 15:58:51;;;;;;;34.03;16.48;;;;;;;;;;6246638;28;20041;-62
2023/03/21 16:01:51;;;;;;;32.75;17.27;;;;;;;;;;6249240;28;20041;-62
2023/03/21 16:05:21;;;;;;;32.53;17.02;;;;;;;;;;6258391;28;20120;-67
2023/03/21 16:08:26;;;;;;;34.47;17.08;;;;;;;;;;6262889;28;20053;-63
2023/03/21 16:11:36;;;;;;;31.83;15.52;;;;;;;;;;6266053;28;20559;-63
2023/03/21 16:14:37;;;;;;;33.80;17.35;;;;;;;;;;6267838;28;20386;-63
2023/03/21 16:17:40;;;;;;;34.83;18.77;;;;;;;;;;6265196;28;20495;-63
2023/03/21 16:20:42;;;;;;;;;;;;;;;;;;6264199;28;20068;-62
2023/03/21 16:23:43;;;;;;;34.17;17.35;;;;;;;;;;6266727;28;20018;-62
2023/03/21 16:26:46;;;;;;;33.25;17.75;;;;;;;;;;6266715;28;20536;-61
2023/03/21 16:29:47;;;;;;;34.15;17.88;;;;;;;;;;6266570;28;20052;-63
2023/03/21 16:32:51;;;;;;;34.33;17.10;;;;;;;;;;6267470;28;20049;-63
2023/03/21 16:35:52;;;;;;;31.00;17.48;;;;;;;;;;6266885;28;20048;-67
2023/03/21 16:38:54;;;;;;;36.35;18.27;;;;;;;;;;6265967;28;20073;-63
2023/03/21 16:41:55;;;;;;;35.92;17.90;;;;;;;;;;6262839;28;20045;-63
2023/03/21 16:44:55;;;;;;;34.03;17.23;;;;;;;;;;6264941;28;20400;-63
2023/03/21 16:47:57;;;;;;;36.50;19.25;;;;;;;;;;6258056;28;20506;-63
2023/03/21 16:50:57;;;;;;;34.95;18.08;;;;;;;;;;6255418;28;20080;-63
2023/03/21 16:53:58;;;;;;;38.20;19.17;;;;;;;;;;6257729;28;20156;-63
2023/03/21 16:56:59;;;;;;;70.70;31.67;;;;;;;;;;6258490;28;20048;-63
2023/03/21 17:00:00;;;;;;;53.50;26.25;;;;;;;;;;6256890;28;20041;-63
2023/03/21 17:03:05;;;;;;;43.15;21.17;;;;;;;;;;6260203;28;20087;-62
2023/03/21 17:06:08;;;;;;;37.80;20.05;;;;;;;;;;6262156;28;20053;-63
2023/03/21 17:09:11;;;;;;;41.88;22.05;;;;;;;;;;6258664;28;20068;-63
2023/03/21 17:12:14;;;;;;;45.10;23.33;;;;;;;;;;6258420;28;20037;-63
2023/03/21 17:15:16;;;;;;;50.08;25.15;;;;;;;;;;6262199;28;20377;-63
2023/03/21 17:18:16;;;;;;;53.47;29.90;;;;;;;;;;6255648;28;20053;-63
2023/03/21 17:21:22;;;;;;;50.05;28.45;;;;;;;;;;6252549;28;20049;-62
2023/03/21 17:24:25;;;;;;;61.00;31.58;;;;;;;;;;6243184;28;20195;-63
2023/03/21 17:27:26;;;;;;;56.33;29.63;;;;;;;;;;6244852;28;20059;-62
2023/03/21 17:30:33;;;;;;;48.80;24.90;;;;;;;;;;6248983;28;20041;-62
2023/03/21 17:33:33;;;;;;;45.70;24.50;;;;;;;;;;6248356;28;20136;-62
2023/03/21 17:36:36;;;;;;;53.22;26.50;;;;;;;;;;6249372;28;20055;-62
2023/03/21 17:39:37;;;;;;;47.20;23.35;;;;;;;;;;6245319;28;20098;-62
2023/03/21 17:42:39;;;;;;;49.30;24.30;;;;;;;;;;6249746;28;20053;-62
2023/03/21 17:45:39;;;;;;;50.83;24.93;;;;;;;;;;6249701;28;20139;-62
2023/03/21 17:48:41;;;;;;;49.30;24.42;;;;;;;;;;6246981;28;21063;-62
2023/03/21 17:51:42;;;;;;;41.20;21.75;;;;;;;;;;6241567;28;20059;-62
2023/03/21 17:54:43;;;;;;;44.07;23.83;;;;;;;;;;6251058;28;20496;-62
2023/03/21 17:57:44;;;;;;;44.15;21.80;;;;;;;;;;6254173;28;20073;-62
2023/03/21 18:00:45;;;;;;;;;;;;;;;;;;6256180;28;20430;-62